Time;durP1;ratioP1;P1;durP2;ratioP2;P2;SDS_P1;SDS_P2;PMS_P1;PMS_P2;Temp;Humidity;BMP_temperature;BMP_pressure;BME280_temperature;BME280_humidity;BME280_pressure;Samples;Min_cycle;Max_cycle;Signal;HPM_P1;HPM_P2
2022/12/15 00:40:39;;;;;;;41.92;25.92;;;;;;;1.66;87.86;96868.75;4199063;28;20209;-84
2022/12/15 00:42:44;;;;;;;46.25;27.50;;;;;;;1.66;87.95;96868.75;4204786;28;20242;-84
2022/12/15 00:44:51;;;;;;;45.50;26.50;;;;;;;1.67;88.17;96882.41;4209448;28;20249;-85
2022/12/15 00:46:53;;;;;;;44.40;27.23;;;;;;;1.70;88.21;96875.41;4199621;28;20217;-85
2022/12/15 00:48:57;;;;;;;49.10;26.00;;;;;;;1.72;88.51;96875.31;4183726;28;20240;-84
2022/12/15 00:50:59;;;;;;;42.97;25.67;;;;;;;1.71;88.44;96874.47;4200293;28;20248;-84
2022/12/15 01:21:18;;;;;;;46.65;25.90;;;;;;;1.59;88.84;96916.19;4186031;28;20349;-85
2022/12/15 01:23:27;;;;;;;46.90;26.40;;;;;;;1.62;88.49;96926.31;4203175;28;20683;-84
2022/12/15 01:25:30;;;;;;;47.25;26.17;;;;;;;1.64;88.52;96928.81;4202818;28;20680;-84
2022/12/15 01:27:33;;;;;;;42.70;25.83;;;;;;;1.64;88.43;96923.66;4201213;28;20209;-84
2022/12/15 01:29:38;;;;;;;41.63;25.52;;;;;;;1.64;87.97;96924.53;4197759;28;20213;-85
2022/12/15 01:31:42;;;;;;;43.38;25.33;;;;;;;1.64;88.05;96934.78;4187594;28;20264;-85
2022/12/15 01:33:46;;;;;;;47.95;27.77;;;;;;;1.62;88.95;96935.78;4203280;28;20613;-84
2022/12/15 01:35:55;;;;;;;45.30;26.52;;;;;;;1.63;88.65;96928.00;4200412;28;20201;-85
2022/12/15 01:37:59;;;;;;;43.45;24.98;;;;;;;1.62;88.50;96926.31;4205870;28;21138;-84
2022/12/15 01:42:23;;;;;;;42.47;24.85;;;;;;;1.58;88.68;96929.97;4207733;28;20211;-84
2022/12/15 01:44:26;;;;;;;44.53;25.95;;;;;;;1.55;88.12;96940.41;4190323;28;20205;-84
2022/12/15 01:46:32;;;;;;;45.67;26.50;;;;;;;1.55;88.25;96937.03;4206122;28;20259;-84
2022/12/15 01:48:39;;;;;;;43.60;24.50;;;;;;;1.53;88.83;96944.81;4201485;28;20205;-84
2022/12/15 01:50:47;;;;;;;46.17;26.17;;;;;;;1.56;88.75;96954.06;4190182;28;20293;-85
2022/12/15 01:52:50;;;;;;;39.30;24.40;;;;;;;1.54;88.69;96943.88;4202336;28;20412;-85
2022/12/15 01:54:55;;;;;;;47.22;25.00;;;;;;;1.58;88.52;96944.53;4197082;28;20217;-84
2022/12/15 01:57:02;;;;;;;43.40;25.35;;;;;;;1.60;88.87;96940.16;4188095;28;20213;-84
2022/12/15 01:59:08;;;;;;;42.20;24.70;;;;;;;1.60;88.68;96941.00;4184544;28;20191;-85
2022/12/15 02:01:11;;;;;;;47.30;25.35;;;;;;;1.59;88.85;96936.75;4201341;28;20803;-84
2022/12/15 02:03:16;;;;;;;40.53;24.50;;;;;;;1.62;88.84;96939.16;4201413;28;20803;-85
2022/12/15 02:05:20;;;;;;;44.95;26.10;;;;;;;1.62;88.76;96939.16;4195216;28;20269;-85
2022/12/15 02:07:37;;;;;;;43.78;26.13;;;;;;;1.63;88.44;96942.59;4145098;23;20250;-92
2022/12/15 02:09:42;;;;;;;44.63;25.98;;;;;;;1.62;89.18;96938.34;4124510;28;20208;-91
2022/12/15 02:11:57;;;;;;;41.90;24.50;;;;;;;1.61;88.55;96942.66;4123232;28;20772;-91
2022/12/15 02:14:02;;;;;;;44.70;24.77;;;;;;;1.65;89.12;96946.72;4126512;28;20228;-91
2022/12/15 02:16:13;;;;;;;46.90;25.45;;;;;;;1.66;87.96;96935.53;4148384;28;20627;-92
2022/12/15 02:18:22;;;;;;;43.13;24.98;;;;;;;1.59;88.06;96936.75;4116354;28;20299;-91
2022/12/15 02:20:41;;;;;;;47.45;27.60;;;;;;;1.58;88.00;96939.41;4129093;28;20196;-92
2022/12/15 02:23:02;;;;;;;45.78;27.27;;;;;;;1.59;87.81;96944.47;4136060;28;20204;-92
2022/12/15 02:25:30;;;;;;;45.13;26.70;;;;;;;1.61;87.88;96945.22;4135576;28;20295;-91
2022/12/15 02:27:45;;;;;;;45.60;26.58;;;;;;;1.59;88.22;96947.03;4118319;28;20200;-92
2022/12/15 02:30:25;;;;;;;43.97;25.63;;;;;;;1.61;88.50;96947.78;4118527;28;20207;-91
2022/12/15 02:32:31;;;;;;;41.92;23.30;;;;;;;1.58;87.89;96945.38;4101167;29;20300;-91
2022/12/15 02:34:40;;;;;;;43.60;26.55;;;;;;;1.59;88.38;96954.72;4101853;28;20565;-92
2022/12/15 02:36:45;;;;;;;39.10;25.13;;;;;;;1.60;88.45;96960.72;4102577;29;20205;-91
2022/12/15 02:38:48;;;;;;;39.83;24.38;;;;;;;1.58;88.05;96963.38;4119127;28;20197;-92
2022/12/15 02:40:57;;;;;;;43.42;25.70;;;;;;;1.59;88.67;96954.72;4119252;28;20197;-92
2022/12/15 02:43:04;;;;;;;42.70;25.08;;;;;;;1.60;87.99;96948.69;4102719;28;20615;-91
2022/12/15 02:45:09;;;;;;;48.00;27.27;;;;;;;1.62;88.14;96949.44;4101976;28;20293;-91
2022/12/15 02:47:27;;;;;;;43.22;24.52;;;;;;;1.63;88.22;96942.59;4125612;28;20204;-92
2022/12/15 02:49:39;;;;;;;47.40;26.58;;;;;;;1.59;88.10;96935.94;4115967;28;20742;-91
2022/12/15 02:51:49;;;;;;;42.80;24.45;;;;;;;1.60;88.23;96941.00;4132964;28;20199;-92
2022/12/15 02:54:12;;;;;;;44.15;25.67;;;;;;;1.62;88.42;96959.72;4136900;28;20223;-92
2022/12/15 02:56:21;;;;;;;44.35;26.27;;;;;;;1.66;88.75;96962.97;4115626;28;20252;-92
2022/12/15 02:58:28;;;;;;;44.80;25.90;;;;;;;1.65;87.91;96972.41;4128588;28;20214;-92
2022/12/15 03:00:35;;;;;;;42.80;25.52;;;;;;;1.66;88.17;96963.78;4114753;28;20248;-92
2022/12/15 03:02:42;;;;;;;45.50;25.10;;;;;;;1.65;88.46;96956.16;4134507;28;20216;-91
2022/12/15 03:04:46;;;;;;;41.90;25.42;;;;;;;1.63;88.63;96953.69;4127738;28;20739;-91
2022/12/15 03:06:55;;;;;;;46.40;26.35;;;;;;;1.65;88.03;96956.97;4148015;28;20239;-91
2022/12/15 03:09:03;;;;;;;39.25;24.45;;;;;;;1.65;88.34;96958.72;4116941;28;20216;-92
2022/12/15 03:11:07;;;;;;;43.45;25.48;;;;;;;1.66;88.12;96957.84;4115115;28;20209;-92
2022/12/15 03:13:10;;;;;;;44.50;26.05;;;;;;;1.65;88.51;96961.31;4111870;28;20684;-91
2022/12/15 03:15:13;;;;;;;43.17;25.45;;;;;;;1.67;88.20;96969.75;4117580;28;20209;-92
2022/12/15 03:17:17;;;;;;;44.83;25.67;;;;;;;1.68;88.15;96981.69;4101070;29;20201;-92
2022/12/15 03:19:20;;;;;;;44.83;26.17;;;;;;;1.67;88.51;96970.59;4117844;28;20576;-92
2022/12/15 03:21:24;;;;;;;40.95;24.90;;;;;;;1.68;88.05;96984.25;4117554;28;20301;-91
2022/12/15 03:23:27;;;;;;;44.13;25.45;;;;;;;1.69;88.00;96973.09;4117511;28;20215;-92
2022/12/15 03:25:31;;;;;;;44.13;25.67;;;;;;;1.72;88.39;96980.63;4101169;29;20205;-92
2022/12/15 03:27:36;;;;;;;41.47;26.10;;;;;;;1.72;87.37;96978.06;4117924;28;20749;-91
2022/12/15 03:29:39;;;;;;;47.95;26.60;;;;;;;1.69;87.74;96973.91;4117819;28;20208;-92
2022/12/15 03:31:43;;;;;;;41.92;25.63;;;;;;;1.68;87.72;96979.13;4101899;28;20288;-92
2022/12/15 03:33:46;;;;;;;40.97;25.25;;;;;;;1.65;87.95;96974.97;4101287;28;20709;-91
2022/12/15 03:35:50;;;;;;;42.30;25.02;;;;;;;1.68;88.20;96966.28;4133052;28;20219;-91
2022/12/15 03:37:54;;;;;;;47.08;26.98;;;;;;;1.70;87.90;96975.59;4094130;28;20213;-91
2022/12/15 03:39:57;;;;;;;46.58;26.58;;;;;;;1.69;87.86;96984.19;4109004;28;20205;-91
2022/12/15 03:42:01;;;;;;;41.15;24.63;;;;;;;1.69;88.16;96994.47;4108748;28;20639;-92
2022/12/15 03:44:04;;;;;;;45.95;25.92;;;;;;;1.72;87.92;96996.88;4108255;28;20251;-91
2022/12/15 03:46:08;;;;;;;44.80;25.27;;;;;;;1.72;87.66;97001.19;4106434;28;20201;-91
2022/12/15 03:48:11;;;;;;;41.10;24.73;;;;;;;1.68;88.02;96992.78;4106380;28;20213;-91
2022/12/15 03:50:17;;;;;;;42.72;25.10;;;;;;;1.71;87.85;97007.22;4120415;28;20260;-91
2022/12/15 03:52:21;;;;;;;44.03;24.50;;;;;;;1.69;87.72;96999.59;4107009;28;20209;-91
2022/12/15 03:54:25;;;;;;;42.38;24.52;;;;;;;1.69;87.82;96999.59;4092500;28;20724;-91
2022/12/15 03:56:28;;;;;;;43.88;24.58;;;;;;;1.69;88.05;96999.59;4108958;28;20668;-91
2022/12/15 03:58:31;;;;;;;41.83;25.88;;;;;;;1.71;87.85;97002.09;4106759;28;20217;-92
2022/12/15 04:00:34;;;;;;;42.55;25.67;;;;;;;1.69;87.81;97002.16;4104734;28;20618;-91
2022/12/15 04:02:37;;;;;;;46.17;26.20;;;;;;;1.66;87.66;97002.31;4107453;28;20224;-91
2022/12/15 04:04:40;;;;;;;47.03;25.83;;;;;;;1.55;87.24;97012.31;4109338;28;20279;-91
2022/12/15 04:06:44;;;;;;;45.55;25.60;;;;;;;1.59;87.51;97013.81;4124515;28;20239;-91
2022/12/15 04:08:47;;;;;;;44.38;26.20;;;;;;;1.60;87.79;97012.91;4091385;28;20680;-91
2022/12/15 04:10:53;;;;;;;42.08;25.27;;;;;;;1.64;87.54;97009.28;4107453;28;20750;-92
2022/12/15 04:12:58;;;;;;;40.72;24.23;;;;;;;1.63;87.38;97017.88;4110049;28;20223;-91
2022/12/15 04:15:01;;;;;;;43.60;25.10;;;;;;;1.58;87.23;97022.44;4107435;28;20323;-91
2022/12/15 04:17:04;;;;;;;48.85;25.92;;;;;;;1.64;87.72;97034.13;4108060;28;20593;-91
2022/12/15 04:21:28;;;;;;;45.70;26.10;;;;;;;1.62;87.76;97035.94;4109847;28;20216;-91
2022/12/15 04:23:31;;;;;;;49.17;25.55;;;;;;;1.63;87.28;97041.00;4122097;28;20290;-91
2022/12/15 05:31:50;;;;;;;36.83;20.23;;;;;;;1.52;84.88;97051.00;4094715;28;20216;-91
2022/12/15 05:33:56;;;;;;;37.75;20.27;;;;;;;1.54;84.27;97048.34;4110314;28;20204;-91
2022/12/15 05:36:31;;;;;;;37.60;20.55;;;;;;;1.54;84.09;97040.66;4105358;28;20611;-91
2022/12/15 05:38:36;;;;;;;35.08;20.63;;;;;;;1.57;84.32;97038.75;4095150;28;20208;-92
2022/12/15 05:40:40;;;;;;;40.20;22.50;;;;;;;1.56;83.90;97039.66;4109002;28;20217;-91
2022/12/15 05:42:43;;;;;;;63.10;32.70;;;;;;;1.55;84.15;97032.88;4127166;28;20200;-91
2022/12/15 05:44:52;;;;;;;38.92;21.55;;;;;;;1.55;84.20;97034.63;4109706;28;20296;-91
2022/12/15 05:46:56;;;;;;;41.15;21.25;;;;;;;1.60;84.20;97041.16;4126423;28;20660;-92
2022/12/15 05:49:02;;;;;;;37.42;21.55;;;;;;;1.61;83.98;97039.41;4107846;28;20212;-91
2022/12/15 05:51:07;;;;;;;39.80;24.10;;;;;;;1.64;84.25;97042.69;4093724;28;20209;-92
2022/12/15 05:53:12;;;;;;;38.60;22.13;;;;;;;1.64;83.93;97041.81;4092515;28;20717;-92
2022/12/15 05:55:16;;;;;;;43.42;23.42;;;;;;;1.66;84.32;97045.19;4092641;28;20256;-91
2022/12/15 05:57:19;;;;;;;44.47;21.73;;;;;;;1.67;83.97;97044.25;4111065;28;20303;-91
2022/12/15 05:59:23;;;;;;;40.15;20.88;;;;;;;1.68;84.28;97054.44;4095625;28;20900;-91
2022/12/15 06:01:26;;;;;;;34.40;19.67;;;;;;;1.73;84.30;97059.34;4093860;28;20220;-91
2022/12/15 06:03:30;;;;;;;38.33;20.80;;;;;;;1.69;84.28;97053.53;4109501;28;20687;-91
2022/12/15 06:05:35;;;;;;;39.35;22.45;;;;;;;1.67;83.99;97045.09;4093382;28;20273;-91
2022/12/15 06:07:38;;;;;;;41.35;21.98;;;;;;;1.65;84.12;97052.03;4104780;28;20216;-91
2022/12/15 06:09:42;;;;;;;39.15;22.20;;;;;;;1.62;83.69;97043.66;4106997;28;20239;-91
2022/12/15 06:11:45;;;;;;;41.20;22.60;;;;;;;1.56;83.42;97038.81;4111520;28;20201;-90
2022/12/15 06:13:49;;;;;;;38.65;21.60;;;;;;;1.58;83.42;97039.56;4093400;28;20220;-92
2022/12/15 06:15:57;;;;;;;34.75;20.40;;;;;;;1.59;83.04;97047.19;4112174;28;20271;-91
2022/12/15 06:18:00;;;;;;;39.63;22.52;;;;;;;1.53;83.84;97042.41;4113217;28;20220;-91
2022/12/15 06:20:04;;;;;;;38.22;22.27;;;;;;;1.53;83.69;97056.97;4129442;28;20200;-91
2022/12/15 06:22:09;;;;;;;42.90;23.42;;;;;;;1.52;84.23;97051.00;4120949;28;20232;-92
2022/12/15 06:24:13;;;;;;;44.58;23.45;;;;;;;1.54;83.76;97051.75;4100703;29;20213;-91
2022/12/15 06:26:19;;;;;;;38.97;22.10;;;;;;;1.52;84.28;97053.56;4110020;28;20209;-91
2022/12/15 06:28:23;;;;;;;45.42;22.95;;;;;;;1.53;83.80;97055.25;4116520;28;20660;-91
2022/12/15 06:30:27;;;;;;;42.25;22.88;;;;;;;1.49;84.15;97058.03;4116560;28;20205;-91
2022/12/15 06:32:30;;;;;;;43.22;23.25;;;;;;;1.46;84.58;97059.00;4100362;29;20244;-91
2022/12/15 06:34:33;;;;;;;42.05;21.52;;;;;;;1.45;84.38;97059.91;4100472;29;20209;-91
2022/12/15 06:36:36;;;;;;;43.75;25.48;;;;;;;1.49;84.67;97063.16;4116404;28;20233;-91
2022/12/15 06:38:42;;;;;;;39.60;23.35;;;;;;;1.50;85.19;97073.38;4097666;29;20208;-92
2022/12/15 06:40:45;;;;;;;44.45;22.55;;;;;;;1.53;85.13;97077.50;4116395;28;20583;-91
2022/12/15 06:42:48;;;;;;;41.28;22.48;;;;;;;1.53;85.25;97083.50;4116428;28;20287;-91
2022/12/15 06:44:51;;;;;;;39.97;21.60;;;;;;;1.56;85.62;97083.31;4100329;28;20201;-91
2022/12/15 06:46:55;;;;;;;41.40;23.05;;;;;;;1.59;85.44;97088.28;4116229;28;20200;-91
2022/12/15 06:48:59;;;;;;;43.40;23.95;;;;;;;1.59;85.46;97078.00;4110820;28;20660;-91
2022/12/15 06:51:04;;;;;;;42.63;23.15;;;;;;;1.62;84.77;97085.56;4112349;28;20674;-92
2022/12/15 06:53:07;;;;;;;46.17;24.88;;;;;;;1.57;84.97;97077.28;4108553;28;20572;-92
2022/12/15 06:55:13;;;;;;;45.95;23.50;;;;;;;1.60;84.93;97081.44;4094124;28;20204;-92
2022/12/15 06:57:16;;;;;;;46.08;23.90;;;;;;;1.56;85.43;97080.75;4126158;28;20295;-95
2022/12/15 06:59:19;;;;;;;44.75;25.60;;;;;;;1.59;85.45;97079.75;4116805;28;20296;-94
2022/12/15 07:01:23;;;;;;;43.80;24.38;;;;;;;1.56;85.43;97075.59;4100274;28;20684;-93
2022/12/15 07:03:27;;;;;;;43.75;23.27;;;;;;;1.61;85.45;97077.94;4100394;28;20197;-94
2022/12/15 07:05:30;;;;;;;40.33;22.27;;;;;;;1.60;85.63;97089.16;4100251;28;20581;-93
2022/12/15 07:07:34;;;;;;;41.63;22.70;;;;;;;1.61;85.73;97083.09;4132323;28;20215;-94
2022/12/15 07:09:37;;;;;;;41.05;22.77;;;;;;;1.66;85.25;97073.44;4100201;28;20709;-95
2022/12/15 07:11:50;;;;;;;40.92;23.33;;;;;;;1.69;85.73;97061.25;4116689;28;20306;-93
2022/12/15 07:13:53;;;;;;;40.03;22.20;;;;;;;1.70;85.80;97059.50;4100317;29;20190;-93
2022/12/15 07:15:59;;;;;;;40.42;23.23;;;;;;;1.73;85.31;97065.34;4116009;28;20251;-94
2022/12/15 07:18:03;;;;;;;40.45;22.23;;;;;;;1.71;84.82;97064.56;4100930;28;20201;-94
2022/12/15 07:20:07;;;;;;;40.08;22.95;;;;;;;1.71;84.91;97069.69;4100449;29;20624;-94
2022/12/15 07:22:11;;;;;;;50.22;28.50;;;;;;;1.71;84.54;97077.41;4132780;28;20746;-94
2022/12/15 07:24:14;;;;;;;38.05;23.52;;;;;;;1.69;84.18;97068.97;4116436;28;20280;-94
2022/12/15 07:26:17;;;;;;;43.17;22.33;;;;;;;1.70;83.90;97060.34;4116559;28;20687;-94
2022/12/15 07:28:22;;;;;;;40.05;21.90;;;;;;;1.72;84.03;97067.97;4100209;28;20224;-94
2022/12/15 07:30:28;;;;;;;42.75;25.95;;;;;;;1.66;83.46;97061.41;4099333;28;20291;-95
2022/12/15 07:32:38;;;;;;;40.00;21.85;;;;;;;1.63;83.74;97066.69;4100139;29;20189;-94
2022/12/15 07:34:42;;;;;;;42.88;23.00;;;;;;;1.65;83.82;97053.78;4116202;28;20197;-94
2022/12/15 07:36:46;;;;;;;39.65;22.65;;;;;;;1.57;83.87;97059.28;4116037;28;20220;-94
2022/12/15 07:38:59;;;;;;;43.80;25.02;;;;;;;1.53;83.44;97068.06;4100457;29;20197;-94
2022/12/15 07:41:04;;;;;;;39.58;23.33;;;;;;;1.50;83.43;97070.81;4100017;29;20594;-95
2022/12/15 07:43:07;;;;;;;46.22;26.45;;;;;;;1.51;83.71;97074.19;4115853;28;20196;-95
2022/12/15 07:45:13;;;;;;;44.58;25.05;;;;;;;1.53;83.49;97078.34;4100052;29;20205;-95
2022/12/15 07:47:16;;;;;;;42.95;23.83;;;;;;;1.57;83.43;97081.59;4100602;29;20206;-93
2022/12/15 07:49:20;;;;;;;40.30;23.02;;;;;;;1.60;83.74;97087.41;4115674;28;20244;-94
2022/12/15 07:51:23;;;;;;;41.78;22.92;;;;;;;1.66;84.04;97092.22;4115851;28;20205;-95
2022/12/15 07:53:27;;;;;;;42.42;24.65;;;;;;;1.68;84.02;97100.69;4099945;28;20198;-96
2022/12/15 07:55:31;;;;;;;40.35;23.58;;;;;;;1.73;83.85;97103.03;4099939;28;20205;-94
2022/12/15 07:57:54;;;;;;;44.85;23.95;;;;;;;1.82;83.91;97107.72;4116293;28;20189;-94
2022/12/15 07:59:58;;;;;;;53.95;23.60;;;;;;;1.85;83.68;97097.28;4099671;28;20245;-95
2022/12/15 08:02:03;;;;;;;43.17;23.42;;;;;;;1.92;83.72;97099.47;4099666;28;20209;-94
2022/12/15 08:04:06;;;;;;;40.90;22.45;;;;;;;1.90;82.75;97102.09;4115921;28;20292;-93
2022/12/15 08:06:12;;;;;;;35.70;22.35;;;;;;;1.89;82.90;97092.75;4099456;28;20225;-94
2022/12/15 08:08:17;;;;;;;40.65;22.33;;;;;;;1.94;82.96;97102.81;4099832;28;20205;-94
2022/12/15 08:10:20;;;;;;;39.80;22.63;;;;;;;1.94;82.16;97119.03;4099566;29;20211;-94
2022/12/15 08:12:23;;;;;;;39.80;23.40;;;;;;;1.94;82.49;97123.38;4099680;28;20624;-94
2022/12/15 08:14:27;;;;;;;38.50;22.35;;;;;;;1.98;82.46;97123.09;4116235;28;20200;-94
2022/12/15 08:16:33;;;;;;;37.00;22.25;;;;;;;1.95;81.78;97114.72;4115832;28;20315;-95
2022/12/15 08:18:38;;;;;;;37.63;22.08;;;;;;;1.93;82.09;97112.22;4116413;28;20200;-95
2022/12/15 08:20:42;;;;;;;41.10;23.23;;;;;;;1.96;82.17;97124.94;4116659;28;20200;-95
2022/12/15 08:22:45;;;;;;;40.03;23.35;;;;;;;1.88;81.82;97123.66;4115682;28;20657;-94
2022/12/15 08:24:49;;;;;;;42.50;23.50;;;;;;;1.73;82.26;97127.00;4116291;28;20197;-95
2022/12/15 08:26:52;;;;;;;38.92;21.42;;;;;;;1.74;81.92;97138.09;4115732;28;20205;-93
2022/12/15 08:28:56;;;;;;;44.05;25.40;;;;;;;1.67;82.30;97150.41;4116291;28;20204;-94
2022/12/15 08:31:21;;;;;;;40.60;23.50;;;;;;;1.59;82.13;97157.66;4115840;28;20195;-94
2022/12/15 08:33:24;;;;;;;45.58;24.38;;;;;;;1.59;82.32;97161.97;4115627;28;20629;-94
2022/12/15 08:35:29;;;;;;;38.30;22.10;;;;;;;1.55;83.11;97161.28;4115645;28;20645;-93
2022/12/15 08:37:52;;;;;;;42.40;22.88;;;;;;;1.53;82.61;97157.13;4115482;28;20228;-95
2022/12/15 08:39:56;;;;;;;40.85;23.20;;;;;;;1.55;83.57;97161.28;4115496;28;20221;-94
2022/12/15 08:42:01;;;;;;;47.75;27.08;;;;;;;1.59;83.12;97167.09;4118202;28;20230;-94
2022/12/15 08:44:05;;;;;;;45.22;25.63;;;;;;;1.67;83.61;97163.25;4102955;29;20252;-92
2022/12/15 08:46:08;;;;;;;43.55;25.08;;;;;;;1.65;82.88;97151.38;4118347;28;20758;-94
2022/12/15 08:48:12;;;;;;;59.88;31.05;;;;;;;1.71;82.87;97140.81;4118387;28;20209;-93
2022/12/15 08:50:16;;;;;;;55.08;29.98;;;;;;;1.78;83.30;97139.63;4102582;29;20232;-94
2022/12/15 08:52:20;;;;;;;44.38;24.52;;;;;;;1.81;82.76;97139.47;4102581;28;20202;-93
2022/12/15 08:54:23;;;;;;;43.90;25.63;;;;;;;1.85;82.58;97128.97;4102394;29;20205;-93
2022/12/15 08:56:29;;;;;;;50.28;26.10;;;;;;;1.91;82.67;97137.19;4102363;28;20201;-95
2022/12/15 08:58:32;;;;;;;41.20;24.77;;;;;;;1.92;82.10;97130.31;4086659;29;20202;-93
2022/12/15 09:00:35;;;;;;;45.35;24.80;;;;;;;1.97;82.50;97134.31;4102523;28;20202;-94
2022/12/15 09:02:39;;;;;;;44.60;24.63;;;;;;;2.00;82.33;97144.44;4102339;28;20301;-94
2022/12/15 09:04:44;;;;;;;42.45;24.15;;;;;;;2.00;82.21;97147.00;4119364;28;20295;-94
2022/12/15 09:06:47;;;;;;;45.05;24.85;;;;;;;2.01;81.52;97148.66;4102135;28;20300;-94
2022/12/15 09:08:56;;;;;;;41.50;24.00;;;;;;;1.96;81.99;97150.63;4102332;29;20233;-93
2022/12/15 09:11:00;;;;;;;44.55;25.67;;;;;;;2.03;81.87;97159.72;4118196;28;20193;-93
2022/12/15 09:13:03;;;;;;;42.67;24.95;;;;;;;2.08;82.34;97162.88;4101950;29;20677;-93
2022/12/15 09:15:07;;;;;;;41.83;25.60;;;;;;;2.05;82.20;97165.59;4102050;29;20748;-94
2022/12/15 09:17:11;;;;;;;40.55;24.30;;;;;;;2.08;81.81;97167.19;4102542;29;20228;-94
2022/12/15 09:19:14;;;;;;;41.15;24.23;;;;;;;2.11;81.68;97174.75;4118039;28;20205;-95
2022/12/15 09:21:21;;;;;;;37.22;22.73;;;;;;;2.13;81.10;97171.19;4101933;29;20210;-94
2022/12/15 09:23:24;;;;;;;40.15;24.40;;;;;;;2.12;81.45;97173.81;4102673;28;20637;-94
2022/12/15 09:25:29;;;;;;;42.47;23.40;;;;;;;2.12;81.68;97169.53;4116676;28;20205;-93
2022/12/15 09:27:33;;;;;;;40.20;22.92;;;;;;;2.10;81.38;97158.47;4101930;28;20221;-94
2022/12/15 09:29:37;;;;;;;36.30;21.67;;;;;;;2.07;81.01;97166.34;4118089;28;20205;-93
2022/12/15 09:31:43;;;;;;;36.50;21.67;;;;;;;2.09;81.28;97161.13;4102176;29;20269;-96
2022/12/15 09:33:46;;;;;;;38.03;21.90;;;;;;;2.17;81.75;97159.03;4117895;28;20235;-93
2022/12/15 09:35:50;;;;;;;37.67;21.55;;;;;;;2.20;81.68;97166.59;4117801;28;20263;-92
2022/12/15 09:37:53;;;;;;;39.80;22.88;;;;;;;2.21;81.35;97163.09;4102360;28;20233;-93
2022/12/15 09:39:57;;;;;;;37.00;22.67;;;;;;;2.14;80.83;97152.28;4117712;28;20200;-92
2022/12/15 09:42:01;;;;;;;38.80;22.20;;;;;;;2.26;81.71;97150.84;4101658;28;20635;-95
2022/12/15 09:44:09;;;;;;;39.60;22.65;;;;;;;2.28;81.67;97154.16;4117806;28;20649;-95
2022/12/15 09:46:20;;;;;;;42.25;24.70;;;;;;;2.24;81.02;97152.63;4117725;28;20261;-96
2022/12/15 09:48:25;;;;;;;34.35;21.15;;;;;;;2.23;81.22;97136.38;4101538;29;20256;-95
2022/12/15 09:50:34;;;;;;;67.32;36.35;;;;;;;2.28;81.34;97141.31;4123881;28;20205;-93
2022/12/15 09:52:47;;;;;;;59.60;32.40;;;;;;;2.17;81.30;97123.03;4113187;28;20201;-96
2022/12/15 09:54:53;;;;;;;37.00;22.08;;;;;;;2.22;81.26;97124.44;4102774;28;20205;-96
2022/12/15 09:57:03;;;;;;;37.75;22.15;;;;;;;2.20;81.17;97120.31;4121605;28;20300;-96
2022/12/15 09:59:19;;;;;;;41.00;22.75;;;;;;;2.21;80.98;97132.22;4120102;28;20197;-95
2022/12/15 10:01:27;;;;;;;40.33;21.60;;;;;;;2.28;81.15;97138.72;4125100;28;20272;-96
2022/12/15 10:03:40;;;;;;;41.72;23.00;;;;;;;2.30;80.78;97132.59;4118412;28;20211;-96
2022/12/15 10:05:56;;;;;;;40.70;22.95;;;;;;;2.33;81.14;97128.13;4119150;28;20271;-95
2022/12/15 10:08:19;;;;;;;40.33;21.52;;;;;;;2.39;80.55;97126.97;4118034;28;20299;-96
2022/12/15 10:10:25;;;;;;;41.30;21.90;;;;;;;2.48;80.76;97132.47;4102524;28;20681;-96
2022/12/15 10:12:33;;;;;;;40.40;23.60;;;;;;;2.49;80.55;97133.31;4101655;29;20221;-95
2022/12/15 10:14:39;;;;;;;38.70;22.33;;;;;;;2.55;80.85;97149.25;4101949;29;20717;-96
2022/12/15 10:16:51;;;;;;;37.75;23.25;;;;;;;2.51;80.82;97146.91;4119375;28;20193;-96
2022/12/15 10:19:07;;;;;;;39.20;22.98;;;;;;;2.51;80.22;97142.63;4118128;28;20639;-95
2022/12/15 10:21:13;;;;;;;46.70;28.25;;;;;;;2.48;80.39;97152.22;4117484;28;20228;-94
2022/12/15 10:23:18;;;;;;;39.90;24.27;;;;;;;2.46;80.69;97156.59;4117327;28;20296;-95
2022/12/15 10:25:22;;;;;;;43.67;25.33;;;;;;;2.43;80.83;97157.59;4117650;28;20208;-94
2022/12/15 10:28:03;;;;;;;39.33;22.80;;;;;;;2.38;80.98;97157.00;4101974;28;20233;-94
2022/12/15 10:30:10;;;;;;;42.35;23.83;;;;;;;2.31;81.29;97154.00;4117548;28;20207;-92
2022/12/15 10:32:17;;;;;;;35.13;21.50;;;;;;;2.28;81.50;97154.97;4117044;28;20204;-93
2022/12/15 10:34:26;;;;;;;37.20;21.88;;;;;;;2.38;81.61;97166.47;4116792;28;20225;-93
2022/12/15 10:36:29;;;;;;;37.30;22.75;;;;;;;2.43;81.51;97169.63;4100810;28;20197;-93
2022/12/15 10:38:49;;;;;;;39.65;22.45;;;;;;;2.47;81.43;97156.53;4117686;28;20315;-92
2022/12/15 10:41:01;;;;;;;38.50;22.23;;;;;;;2.34;81.49;97147.78;4117146;28;20208;-92
2022/12/15 10:43:13;;;;;;;38.72;21.58;;;;;;;2.37;81.72;97150.19;4100929;29;20209;-92
2022/12/15 10:45:35;;;;;;;39.85;22.42;;;;;;;2.39;81.49;97145.81;4117491;28;20708;-93
2022/12/15 10:47:38;;;;;;;37.05;21.38;;;;;;;2.43;81.23;97139.59;4101524;28;20264;-93
2022/12/15 10:49:42;;;;;;;37.58;22.00;;;;;;;2.46;81.24;97134.28;4100927;29;20221;-92
2022/12/15 10:51:49;;;;;;;42.30;23.75;;;;;;;2.56;81.20;97134.66;4132590;28;20299;-92
2022/12/15 10:53:54;;;;;;;38.40;22.00;;;;;;;2.67;81.27;97130.59;4116774;28;20230;-91
2022/12/15 10:56:00;;;;;;;36.05;22.80;;;;;;;2.76;81.59;97122.38;4116461;28;20731;-91
2022/12/15 10:58:20;;;;;;;34.95;21.08;;;;;;;2.87;81.22;97117.47;4132457;28;20320;-93
2022/12/15 11:00:28;;;;;;;35.45;21.25;;;;;;;2.82;80.81;97104.03;4117020;28;20841;-95
2022/12/15 11:02:35;;;;;;;40.10;22.23;;;;;;;2.92;80.78;97094.91;4101692;28;20248;-96
2022/12/15 11:04:39;;;;;;;35.10;21.63;;;;;;;2.76;80.43;97086.34;4117111;28;20205;-93
2022/12/15 11:06:42;;;;;;;35.45;21.75;;;;;;;2.73;80.47;97081.38;4101302;28;20229;-94
2022/12/15 11:08:48;;;;;;;36.65;20.85;;;;;;;2.73;80.52;97073.66;4103784;28;20257;-95
2022/12/15 11:14:10;;;;;;;38.53;21.17;;;;;;;2.60;80.37;97067.53;4103832;28;20226;-96
2022/12/15 11:16:18;;;;;;;37.03;20.70;;;;;;;2.57;80.67;97072.81;4110892;28;20209;-95
2022/12/15 11:18:27;;;;;;;37.53;21.67;;;;;;;2.57;81.22;97071.97;4112334;28;20216;-94
2022/12/15 11:20:34;;;;;;;36.20;20.60;;;;;;;2.59;81.34;97070.19;4106006;28;20208;-93
2022/12/15 11:22:42;;;;;;;39.38;20.67;;;;;;;2.71;81.23;97085.78;4106590;28;20213;-96
2022/12/15 11:25:05;;;;;;;39.13;21.58;;;;;;;2.76;81.49;97094.06;4110564;28;20212;-92
2022/12/15 11:27:21;;;;;;;42.03;23.38;;;;;;;2.77;81.26;97089.75;4109160;28;20230;-93
2022/12/15 11:29:28;;;;;;;39.05;21.88;;;;;;;2.73;81.19;97096.00;4106705;28;20204;-94
2022/12/15 11:31:37;;;;;;;39.08;21.80;;;;;;;2.75;80.97;97094.97;4110122;28;20208;-92
2022/12/15 11:33:40;;;;;;;40.10;22.08;;;;;;;2.79;81.41;97091.34;4105128;28;20201;-92
2022/12/15 11:35:53;;;;;;;40.03;22.00;;;;;;;2.73;81.67;97089.09;4123063;28;20204;-93
2022/12/15 11:38:00;;;;;;;41.58;22.50;;;;;;;2.77;81.57;97093.16;4112538;28;20208;-94
2022/12/15 11:40:33;;;;;;;35.25;20.95;;;;;;;2.83;81.45;97092.84;4111089;28;20718;-94
2022/12/15 11:42:52;;;;;;;42.28;22.13;;;;;;;2.85;81.21;97086.66;4112673;28;20205;-95
2022/12/15 11:45:03;;;;;;;37.38;21.15;;;;;;;2.83;80.62;97091.09;4094965;29;21004;-93
2022/12/15 11:47:13;;;;;;;36.17;20.75;;;;;;;2.75;81.61;97094.97;4095828;29;20217;-96
2022/12/15 11:49:44;;;;;;;40.22;22.27;;;;;;;2.75;81.56;97094.97;4092946;28;20681;-93
2022/12/15 11:51:52;;;;;;;38.30;22.88;;;;;;;2.73;81.10;97086.50;4092201;28;20305;-94
2022/12/15 11:54:05;;;;;;;39.20;21.45;;;;;;;2.74;81.39;97087.34;4125056;28;20215;-94
2022/12/15 11:56:17;;;;;;;34.38;21.00;;;;;;;2.75;82.09;97083.84;4111664;28;20220;-94
2022/12/15 11:58:36;;;;;;;42.72;22.73;;;;;;;2.65;81.62;97078.38;4105288;28;22313;-92
2022/12/15 12:00:43;;;;;;;35.25;19.35;;;;;;;2.61;81.69;97068.34;4110371;28;20232;-94
2022/12/15 12:02:58;;;;;;;42.03;21.10;;;;;;;2.55;81.42;97054.06;4109471;28;20719;-94
2022/12/15 12:05:21;;;;;;;36.08;20.13;;;;;;;2.49;81.54;97046.66;4094773;28;20249;-94
2022/12/15 12:07:30;;;;;;;38.83;22.30;;;;;;;2.50;82.11;97040.63;4095125;29;20209;-95
2022/12/15 12:09:46;;;;;;;36.55;22.02;;;;;;;2.52;82.79;97041.34;4109681;28;20224;-94
2022/12/15 12:11:54;;;;;;;39.55;22.17;;;;;;;2.53;82.54;97042.19;4110949;28;20208;-93